Time;durP1;ratioP1;P1;durP2;ratioP2;P2;SDS_P1;SDS_P2;PMS_P1;PMS_P2;Temp;Humidity;BMP_temperature;BMP_pressure;BME280_temperature;BME280_humidity;BME280_pressure;Samples;Min_cycle;Max_cycle;Signal;HPM_P1;HPM_P2
2022/10/01 00:00:56;;;;;;;38.85;12.35;;;15.30;99.90;;;;;;5074077;28;20025;-55
2022/10/01 00:03:24;;;;;;;23.92;8.98;;;15.30;99.90;;;;;;5074325;28;20108;-55
2022/10/01 00:06:15;;;;;;;18.45;8.07;;;15.20;99.90;;;;;;5074422;28;20032;-55
2022/10/01 00:08:44;;;;;;;24.55;8.80;;;15.30;99.90;;;;;;5074292;28;20052;-55
2022/10/01 00:11:18;;;;;;;28.52;10.15;;;15.30;99.90;;;;;;5074253;28;20027;-55
2022/10/01 00:13:45;;;;;;;34.53;13.15;;;15.30;99.90;;;;;;5073902;28;20051;-55
2022/10/01 00:16:19;;;;;;;34.65;13.88;;;15.30;99.90;;;;;;5074494;28;20024;-55
2022/10/01 00:18:46;;;;;;;38.20;13.52;;;15.40;99.90;;;;;;5074127;28;20102;-55
2022/10/01 00:21:21;;;;;;;26.45;10.20;;;15.40;99.90;;;;;;5074206;28;20025;-55
2022/10/01 00:23:53;;;;;;;15.75;7.57;;;15.50;99.90;;;;;;5073799;28;20106;-55
2022/10/01 00:26:21;;;;;;;15.32;6.50;;;15.50;99.90;;;;;;5053932;28;20150;-55
2022/10/01 00:28:52;;;;;;;14.40;5.93;;;15.50;99.90;;;;;;5054101;28;20207;-55
2022/10/01 00:31:18;;;;;;;13.25;6.75;;;15.60;99.90;;;;;;5054017;28;20033;-55
2022/10/01 00:33:44;;;;;;;15.70;5.90;;;15.60;99.90;;;;;;5053979;28;20555;-55
2022/10/01 00:36:10;;;;;;;17.17;6.57;;;15.60;99.90;;;;;;5054152;28;20410;-55
2022/10/01 00:38:37;;;;;;;20.23;6.72;;;15.60;99.90;;;;;;5053812;28;20037;-55
2022/10/01 00:41:03;;;;;;;12.13;6.10;;;15.50;99.90;;;;;;5053895;28;20036;-55
2022/10/01 00:43:34;;;;;;;14.63;6.38;;;15.50;99.90;;;;;;5055731;28;20541;-55
2022/10/01 00:46:13;;;;;;;45.28;16.73;;;15.40;99.90;;;;;;5068450;28;20443;-55
2022/10/01 00:48:59;;;;;;;42.13;12.60;;;15.50;99.90;;;;;;5077681;28;20032;-55
2022/10/01 00:51:28;;;;;;;25.52;9.35;;;15.50;99.90;;;;;;5077630;28;20029;-55
2022/10/01 00:54:01;;;;;;;26.55;9.70;;;15.50;99.90;;;;;;5077445;28;20051;-55
2022/10/01 00:56:27;;;;;;;24.38;7.72;;;15.40;99.90;;;;;;5077519;28;20032;-55
2022/10/01 00:58:54;;;;;;;30.35;9.25;;;15.40;99.90;;;;;;5077477;28;20236;-55
2022/10/01 01:01:23;;;;;;;22.15;9.02;;;15.50;99.90;;;;;;5077066;28;20075;-55
2022/10/01 01:03:49;;;;;;;20.48;7.95;;;15.40;99.90;;;;;;5077290;28;20363;-55
2022/10/01 01:06:16;;;;;;;19.60;7.13;;;15.50;99.90;;;;;;5077095;28;20064;-55
2022/10/01 01:08:42;;;;;;;21.60;6.38;;;15.40;99.90;;;;;;5077505;28;20024;-55
2022/10/01 01:11:23;;;;;;;20.48;6.50;;;15.40;99.90;;;;;;5077308;28;20043;-55
2022/10/01 01:14:17;;;;;;;11.63;5.00;;;15.50;99.90;;;;;;5076933;28;20049;-55
2022/10/01 01:16:56;;;;;;;15.90;7.13;;;15.70;99.90;;;;;;5077139;28;20037;-55
2022/10/01 01:20:12;;;;;;;17.92;5.10;;;15.80;99.90;;;;;;5077085;28;20030;-55
2022/10/01 01:22:47;;;;;;;15.43;5.40;;;15.90;99.90;;;;;;4995109;28;20628;-55
2022/10/01 01:25:23;;;;;;;15.05;5.35;;;15.90;99.90;;;;;;5006198;28;20064;-55
2022/10/01 01:27:59;;;;;;;18.58;4.90;;;15.90;99.90;;;;;;5014730;28;20046;-55
2022/10/01 01:30:25;;;;;;;11.00;5.13;;;15.80;99.90;;;;;;5014686;28;20516;-55
2022/10/01 01:33:01;;;;;;;12.07;4.63;;;15.80;99.90;;;;;;5014629;28;20037;-55
2022/10/01 01:35:36;;;;;;;8.85;4.60;;;15.80;99.90;;;;;;5014613;28;20040;-55
2022/10/01 01:38:16;;;;;;;13.02;4.97;;;15.60;99.90;;;;;;5014566;28;20439;-55
2022/10/01 01:40:45;;;;;;;12.57;5.30;;;15.60;99.90;;;;;;5014529;28;20459;-55
2022/10/01 01:43:18;;;;;;;13.73;6.22;;;15.40;99.90;;;;;;5014375;28;20507;-55
2022/10/01 01:45:45;;;;;;;13.52;6.13;;;15.30;99.90;;;;;;5005464;28;20034;-55
2022/10/01 01:48:11;;;;;;;10.65;5.85;;;15.10;99.90;;;;;;4994802;28;20027;-55
2022/10/01 01:51:11;;;;;;;11.63;5.50;;;15.20;99.90;;;;;;4994688;28;20030;-55
2022/10/01 01:53:37;;;;;;;11.45;4.95;;;15.20;99.90;;;;;;5049492;28;20037;-55
2022/10/01 01:56:05;;;;;;;20.92;5.07;;;15.20;99.90;;;;;;5075377;28;20028;-55
2022/10/01 01:58:33;;;;;;;13.50;5.43;;;15.20;99.90;;;;;;5076330;28;20032;-55
2022/10/01 02:01:00;;;;;;;14.30;5.07;;;15.10;99.90;;;;;;5076234;28;20502;-55
2022/10/01 02:03:28;;;;;;;13.15;4.82;;;15.10;99.90;;;;;;5076399;28;20123;-55
2022/10/01 02:06:20;;;;;;;22.50;5.57;;;15.00;99.90;;;;;;5076100;28;20232;-55
2022/10/01 02:09:10;;;;;;;7.72;4.32;;;15.00;99.90;;;;;;5076173;28;20024;-55
2022/10/01 02:11:45;;;;;;;12.33;6.10;;;14.90;99.90;;;;;;5075981;28;20297;-55
2022/10/01 02:14:34;;;;;;;16.80;6.10;;;14.90;99.90;;;;;;5076080;28;20029;-55
2022/10/01 02:17:12;;;;;;;13.15;6.22;;;14.90;99.90;;;;;;5076051;28;20032;-55
2022/10/01 02:20:00;;;;;;;13.60;6.05;;;14.90;99.90;;;;;;5075784;28;20474;-55
2022/10/01 02:22:33;;;;;;;17.27;7.00;;;14.80;99.90;;;;;;5075822;28;20054;-55
2022/10/01 02:25:02;;;;;;;18.23;7.30;;;14.80;99.90;;;;;;5085285;28;20036;-55
2022/10/01 02:27:54;;;;;;;22.60;10.73;;;14.80;99.90;;;;;;5095998;28;20028;-55
2022/10/01 02:30:20;;;;;;;15.57;7.97;;;14.90;99.90;;;;;;5096098;28;20028;-55
2022/10/01 02:32:49;;;;;;;16.90;8.02;;;14.80;99.90;;;;;;5095808;28;20016;-55
2022/10/01 02:35:18;;;;;;;19.65;8.18;;;14.90;99.90;;;;;;5095823;28;20032;-55
2022/10/01 02:37:48;;;;;;;22.20;8.00;;;14.90;99.90;;;;;;5095868;28;20039;-55
2022/10/01 02:40:21;;;;;;;16.00;7.15;;;14.80;99.90;;;;;;5095757;28;20024;-55
2022/10/01 02:42:53;;;;;;;18.30;7.45;;;14.70;99.90;;;;;;5095614;28;20492;-55
2022/10/01 02:45:22;;;;;;;19.50;7.35;;;14.70;99.90;;;;;;5090004;28;20436;-55
2022/10/01 02:47:58;;;;;;;14.40;7.13;;;14.70;99.90;;;;;;5075327;28;20107;-55
2022/10/01 02:50:31;;;;;;;14.73;6.70;;;14.70;99.90;;;;;;5075443;28;20470;-55
2022/10/01 02:53:07;;;;;;;18.08;6.13;;;14.80;99.90;;;;;;5075217;28;20052;-55
2022/10/01 02:55:37;;;;;;;28.52;10.88;;;14.80;99.90;;;;;;5075210;28;20055;-55
2022/10/01 02:58:03;;;;;;;27.48;10.80;;;14.80;99.90;;;;;;5074982;28;20032;-55
2022/10/01 03:00:29;;;;;;;23.13;11.13;;;14.90;99.90;;;;;;5075108;28;20028;-55
2022/10/01 03:02:55;;;;;;;32.05;11.77;;;14.90;99.90;;;;;;5075063;28;20068;-55
2022/10/01 03:05:21;;;;;;;21.20;9.70;;;15.00;99.90;;;;;;5074540;28;20032;-55
2022/10/01 03:07:48;;;;;;;17.70;7.75;;;15.00;99.90;;;;;;5074817;28;20027;-55
2022/10/01 03:10:15;;;;;;;30.23;7.68;;;15.00;99.90;;;;;;5075044;28;20020;-55
2022/10/01 03:12:43;;;;;;;17.52;7.22;;;15.10;99.90;;;;;;5074739;28;20052;-55
2022/10/01 03:15:11;;;;;;;21.63;7.28;;;15.10;99.90;;;;;;5074871;28;20028;-55
2022/10/01 03:17:37;;;;;;;21.88;8.95;;;15.10;99.90;;;;;;5074891;28;20025;-55
2022/10/01 03:20:05;;;;;;;19.33;7.57;;;15.10;99.90;;;;;;5074942;28;20047;-55
2022/10/01 03:22:32;;;;;;;15.88;6.55;;;14.90;99.90;;;;;;5074545;28;20032;-55
2022/10/01 03:24:58;;;;;;;13.27;5.47;;;15.00;99.90;;;;;;5084228;28;20031;-55
2022/10/01 03:27:24;;;;;;;16.25;6.45;;;15.20;99.90;;;;;;5094879;28;20043;-55
2022/10/01 03:29:50;;;;;;;12.60;6.10;;;15.20;99.90;;;;;;5094857;28;20412;-55
2022/10/01 03:32:17;;;;;;;12.40;4.57;;;15.30;99.90;;;;;;5094649;28;20545;-55
2022/10/01 03:34:43;;;;;;;10.98;3.75;;;15.40;99.90;;;;;;5094800;28;20040;-55
2022/10/01 03:37:09;;;;;;;6.38;3.10;;;15.50;99.90;;;;;;5094726;28;20028;-55
2022/10/01 03:39:35;;;;;;;16.17;3.78;;;15.60;99.90;;;;;;5094763;28;20389;-55
2022/10/01 03:42:01;;;;;;;12.10;3.10;;;15.70;99.90;;;;;;5094619;28;20063;-55
2022/10/01 03:44:27;;;;;;;11.73;2.63;;;16.00;99.90;;;;;;5094643;28;20486;-55
2022/10/01 03:46:54;;;;;;;4.95;2.53;;;16.40;99.90;;;;;;5076160;28;20043;-55
2022/10/01 03:49:20;;;;;;;6.30;1.95;;;16.80;99.90;;;;;;5074468;28;20025;-55
2022/10/01 03:51:46;;;;;;;5.07;2.30;;;17.50;97.90;;;;;;5074309;28;20382;-55
2022/10/01 03:54:12;;;;;;;4.97;2.00;;;17.60;97.30;;;;;;5074442;28;20021;-55
2022/10/01 03:56:41;;;;;;;7.10;2.00;;;17.70;96.90;;;;;;5074292;28;20032;-55
2022/10/01 03:59:08;;;;;;;5.50;2.08;;;17.90;94.60;;;;;;5074223;28;20478;-55
2022/10/01 04:01:34;;;;;;;7.32;2.72;;;18.00;94.70;;;;;;5074297;28;20509;-55
2022/10/01 04:04:00;;;;;;;7.72;2.92;;;18.20;95.20;;;;;;5074209;28;20032;-55
2022/10/01 04:06:26;;;;;;;3.75;1.75;;;18.10;95.70;;;;;;5074257;28;20040;-55
2022/10/01 04:08:52;;;;;;;12.20;2.78;;;18.10;95.50;;;;;;5074168;28;20023;-55
2022/10/01 04:11:18;;;;;;;7.45;2.40;;;18.20;94.80;;;;;;5074682;28;20032;-55
2022/10/01 04:13:44;;;;;;;7.13;2.97;;;18.20;94.80;;;;;;5074155;28;20048;-55
2022/10/01 04:16:10;;;;;;;4.47;1.52;;;18.30;93.70;;;;;;5074299;28;20036;-55
2022/10/01 04:18:36;;;;;;;7.93;1.90;;;18.60;91.60;;;;;;5076286;28;20060;-55
2022/10/01 04:21:02;;;;;;;6.00;1.98;;;18.60;91.70;;;;;;5078018;28;20036;-55
2022/10/01 04:23:28;;;;;;;8.88;2.20;;;18.70;90.90;;;;;;5078089;28;20081;-55
2022/10/01 04:25:56;;;;;;;7.53;2.70;;;18.60;92.90;;;;;;5095209;28;20028;-55
2022/10/01 04:28:22;;;;;;;11.10;2.60;;;18.60;92.30;;;;;;5098318;28;20030;-55
2022/10/01 04:31:23;;;;;;;14.55;3.83;;;18.60;92.20;;;;;;5098410;28;20118;-55
2022/10/01 04:33:34;;;;;;;19.30;3.67;;;18.50;93.40;;;;;;5098248;28;20028;-55
2022/10/01 04:36:00;;;;;;;9.48;2.55;;;18.40;93.40;;;;;;5098019;28;20537;-55
2022/10/01 04:38:26;;;;;;;10.90;2.78;;;18.30;93.80;;;;;;5098106;28;20032;-55
2022/10/01 04:40:52;;;;;;;7.90;2.72;;;18.20;94.20;;;;;;5098075;28;20036;-55
2022/10/01 04:43:18;;;;;;;19.15;4.03;;;18.10;94.30;;;;;;5098007;28;20052;-55
2022/10/01 04:45:44;;;;;;;13.85;3.25;;;18.10;94.40;;;;;;5088708;28;20485;-55
2022/10/01 04:48:09;;;;;;;14.10;3.55;;;17.90;95.70;;;;;;5077575;28;20028;-55
2022/10/01 04:50:36;;;;;;;10.98;3.78;;;17.70;97.30;;;;;;5077494;28;20025;-55
2022/10/01 04:53:02;;;;;;;14.65;4.10;;;17.70;97.00;;;;;;5077469;28;20082;-55
2022/10/01 04:55:28;;;;;;;18.83;4.85;;;17.60;97.70;;;;;;5077597;28;20462;-55
2022/10/01 04:57:53;;;;;;;10.95;4.65;;;17.50;98.00;;;;;;5077529;28;20031;-55
2022/10/01 05:00:23;;;;;;;15.55;4.72;;;17.40;99.30;;;;;;5077452;28;20466;-55
2022/10/01 05:02:50;;;;;;;11.10;5.28;;;17.40;99.90;;;;;;5077296;28;20082;-55
2022/10/01 05:05:17;;;;;;;18.02;4.60;;;17.20;99.90;;;;;;5077327;28;20066;-55
2022/10/01 05:07:43;;;;;;;9.23;4.05;;;17.10;99.90;;;;;;5076068;28;20564;-55
2022/10/01 05:10:12;;;;;;;13.02;4.07;;;17.00;99.90;;;;;;5077264;28;20383;-55
2022/10/01 05:12:38;;;;;;;13.68;4.28;;;16.90;99.90;;;;;;5077015;28;20058;-55
2022/10/01 05:15:04;;;;;;;33.10;6.78;;;16.70;99.90;;;;;;5077192;28;20533;-55
2022/10/01 05:17:33;;;;;;;34.40;9.32;;;16.70;99.90;;;;;;5077033;28;20035;-55
2022/10/01 05:20:00;;;;;;;23.63;6.68;;;16.70;99.90;;;;;;5076964;28;20032;-55
2022/10/01 05:22:26;;;;;;;26.70;7.05;;;16.60;99.90;;;;;;5076991;28;20032;-55
2022/10/01 05:24:52;;;;;;;30.98;6.68;;;16.50;99.90;;;;;;5085575;28;20505;-55
2022/10/01 05:27:18;;;;;;;24.60;7.80;;;16.50;99.90;;;;;;5097072;28;20063;-55
2022/10/01 05:29:45;;;;;;;35.40;8.32;;;16.50;99.90;;;;;;5096880;28;20048;-55
2022/10/01 05:32:12;;;;;;;31.13;10.20;;;16.30;99.90;;;;;;5097085;28;20024;-55
2022/10/01 05:34:38;;;;;;;31.60;9.35;;;16.30;99.90;;;;;;5097222;28;20032;-55
2022/10/01 05:37:05;;;;;;;32.25;10.90;;;16.20;99.90;;;;;;5097001;28;20035;-55
2022/10/01 05:39:31;;;;;;;59.75;14.48;;;16.10;99.90;;;;;;5096835;28;20478;-55
2022/10/01 05:41:58;;;;;;;36.15;11.43;;;16.10;99.90;;;;;;5096744;28;20088;-55
2022/10/01 05:44:24;;;;;;;39.95;11.10;;;16.10;99.90;;;;;;5096902;28;20044;-55
2022/10/01 05:46:52;;;;;;;35.72;10.85;;;16.10;99.90;;;;;;5078337;28;20112;-55
2022/10/01 05:49:18;;;;;;;35.40;10.38;;;16.10;99.90;;;;;;5076713;28;20028;-55
2022/10/01 05:51:44;;;;;;;40.70;10.00;;;16.00;99.90;;;;;;5076693;28;20035;-55
2022/10/01 05:54:11;;;;;;;55.30;11.18;;;16.10;99.90;;;;;;5076333;28;20474;-55
2022/10/01 05:56:37;;;;;;;62.90;13.52;;;16.10;99.90;;;;;;5076410;28;20059;-55
2022/10/01 05:59:04;;;;;;;44.40;14.75;;;16.10;99.90;;;;;;5076291;28;20524;-55
2022/10/01 06:01:31;;;;;;;47.80;17.35;;;16.20;99.90;;;;;;5076175;28;20025;-55
2022/10/01 06:03:57;;;;;;;45.80;13.82;;;16.30;99.90;;;;;;5076195;28;20040;-55
2022/10/01 06:06:24;;;;;;;47.38;13.70;;;16.40;99.90;;;;;;5076090;28;20038;-55
2022/10/01 06:08:50;;;;;;;66.43;14.43;;;16.40;99.90;;;;;;5076124;28;20055;-55
2022/10/01 06:11:16;;;;;;;52.30;12.43;;;16.40;99.90;;;;;;5076103;28;20029;-55
2022/10/01 06:13:45;;;;;;;57.83;12.18;;;16.40;99.90;;;;;;5076011;28;20045;-55
2022/10/01 06:16:12;;;;;;;31.30;9.20;;;16.40;99.90;;;;;;5075874;28;20482;-55
2022/10/01 06:18:41;;;;;;;29.27;8.77;;;16.40;99.90;;;;;;5075994;28;20032;-55
2022/10/01 06:21:08;;;;;;;27.08;8.73;;;16.50;99.90;;;;;;5075744;28;20031;-55
2022/10/01 06:23:34;;;;;;;31.23;9.52;;;16.50;99.90;;;;;;5075645;28;20044;-55
2022/10/01 06:26:04;;;;;;;27.35;10.85;;;16.60;99.90;;;;;;5094041;28;20393;-55
2022/10/01 06:28:30;;;;;;;67.93;17.73;;;16.70;99.90;;;;;;5095894;28;20028;-55
2022/10/01 06:30:59;;;;;;;56.97;17.15;;;16.70;99.90;;;;;;5095977;28;20099;-55
2022/10/01 06:33:25;;;;;;;64.70;19.60;;;16.70;99.90;;;;;;5095861;28;20035;-55
2022/10/01 06:35:51;;;;;;;71.18;22.80;;;16.90;99.90;;;;;;5095748;28;20028;-55
2022/10/01 06:38:20;;;;;;;69.88;21.77;;;16.90;99.90;;;;;;5095779;28;20118;-55
2022/10/01 06:40:57;;;;;;;100.85;28.35;;;17.10;99.90;;;;;;5095013;28;20115;-55
2022/10/01 06:43:25;;;;;;;85.05;21.55;;;17.20;99.90;;;;;;5095851;28;20028;-55
2022/10/01 06:45:51;;;;;;;71.13;21.50;;;17.30;99.90;;;;;;5085546;28;20035;-55
2022/10/01 06:48:18;;;;;;;60.05;18.38;;;17.40;99.90;;;;;;5075365;28;20033;-55
2022/10/01 06:50:46;;;;;;;78.32;28.10;;;17.50;99.90;;;;;;5075331;28;20025;-55
2022/10/01 06:53:13;;;;;;;104.13;32.22;;;17.60;99.90;;;;;;5075432;28;20021;-55
2022/10/01 06:55:40;;;;;;;114.78;27.38;;;17.70;99.90;;;;;;5075120;28;20024;-55
2022/10/01 06:58:20;;;;;;;73.45;28.55;;;17.80;99.90;;;;;;5075232;28;20165;-55
2022/10/01 07:00:47;;;;;;;91.30;28.02;;;17.90;99.90;;;;;;5075130;28;20496;-55
2022/10/01 07:03:16;;;;;;;107.78;30.35;;;18.00;99.90;;;;;;5075042;28;20020;-55
2022/10/01 07:05:42;;;;;;;97.45;26.35;;;18.10;99.90;;;;;;5075016;28;20036;-55
2022/10/01 07:08:08;;;;;;;120.78;27.30;;;18.20;99.90;;;;;;5074890;28;20036;-55
2022/10/01 07:10:34;;;;;;;93.45;25.42;;;18.30;99.90;;;;;;5074879;28;20037;-55
2022/10/01 07:13:07;;;;;;;80.82;22.42;;;18.60;99.90;;;;;;5074789;28;20056;-55
2022/10/01 07:15:33;;;;;;;66.35;18.92;;;18.80;99.90;;;;;;5074881;28;20029;-55
2022/10/01 07:18:00;;;;;;;53.85;17.15;;;19.10;99.90;;;;;;5074830;28;20116;-55
2022/10/01 07:20:26;;;;;;;69.75;16.70;;;19.30;99.90;;;;;;5074664;28;20454;-55
2022/10/01 07:22:59;;;;;;;48.33;15.32;;;19.80;99.90;;;;;;5074743;28;20033;-55
2022/10/01 07:25:26;;;;;;;46.38;15.15;;;19.90;99.90;;;;;;5088004;28;20036;-55
2022/10/01 07:28:00;;;;;;;46.38;14.20;;;20.20;99.90;;;;;;5094988;28;20028;-55
2022/10/01 07:30:27;;;;;;;49.78;15.18;;;20.40;99.90;;;;;;5094817;28;20384;-55
2022/10/01 07:32:55;;;;;;;57.22;18.30;;;20.50;99.90;;;;;;5094806;28;20031;-55
2022/10/01 07:35:22;;;;;;;49.47;17.98;;;20.60;99.90;;;;;;5094934;28;20028;-55
2022/10/01 07:37:49;;;;;;;51.88;17.00;;;20.70;99.90;;;;;;5094638;28;20100;-55
2022/10/01 07:40:16;;;;;;;58.72;18.27;;;20.90;99.90;;;;;;5094829;28;20024;-55
2022/10/01 07:42:43;;;;;;;60.97;16.67;;;21.10;99.90;;;;;;5094763;28;20535;-55
2022/10/01 07:45:09;;;;;;;31.17;13.13;;;21.40;99.90;;;;;;5090605;28;20021;-55
2022/10/01 07:47:35;;;;;;;35.67;11.10;;;21.80;98.00;;;;;;5074384;28;20040;-55
2022/10/01 07:50:02;;;;;;;45.25;13.35;;;22.20;96.50;;;;;;5074344;28;20135;-55
2022/10/01 07:52:28;;;;;;;29.50;11.35;;;22.70;94.50;;;;;;5074240;28;20474;-55
2022/10/01 07:54:54;;;;;;;42.22;12.85;;;22.90;92.40;;;;;;5074404;28;20090;-55
2022/10/01 07:57:20;;;;;;;36.83;13.32;;;23.10;91.80;;;;;;5074270;28;20428;-55
2022/10/01 07:59:45;;;;;;;39.53;11.90;;;23.20;92.40;;;;;;5074399;28;20047;-55
2022/10/01 08:02:16;;;;;;;38.10;11.75;;;23.80;91.00;;;;;;5074134;28;20029;-55
2022/10/01 08:07:26;;;;;;;32.67;8.30;;;25.10;85.60;;;;;;5074378;28;19923;-55
2022/10/01 08:09:52;;;;;;;12.40;4.70;;;25.90;79.40;;;;;;5074240;28;20024;-55
2022/10/01 08:12:18;;;;;;;13.52;5.40;;;25.90;71.10;;;;;;5074135;28;20363;-56
2022/10/01 08:14:46;;;;;;;7.53;3.20;;;26.60;70.40;;;;;;5074208;28;20418;-56
2022/10/01 08:17:13;;;;;;;25.63;6.68;;;26.60;64.70;;;;;;5074251;28;20025;-56
2022/10/01 08:19:39;;;;;;;12.18;4.50;;;27.70;65.40;;;;;;5074275;28;20025;-56
2022/10/01 08:22:06;;;;;;;7.50;3.03;;;28.10;63.60;;;;;;5073896;28;20041;-56
2022/10/01 08:24:33;;;;;;;13.98;3.67;;;27.80;58.80;;;;;;5079822;28;20028;-56
2022/10/01 08:26:59;;;;;;;16.25;3.92;;;27.70;59.70;;;;;;5094222;28;20028;-56
2022/10/01 08:29:26;;;;;;;8.50;2.90;;;27.60;64.20;;;;;;5094195;28;20491;-56
2022/10/01 08:31:52;;;;;;;20.88;4.47;;;27.30;60.70;;;;;;5094443;28;20063;-56
2022/10/01 08:34:18;;;;;;;6.10;2.53;;;27.00;61.30;;;;;;5094477;28;20036;-56
2022/10/01 08:36:44;;;;;;;9.80;2.95;;;26.00;61.70;;;;;;5094061;28;20040;-56
2022/10/01 08:39:12;;;;;;;11.82;2.67;;;25.90;62.00;;;;;;5094409;28;20024;-56
2022/10/01 08:42:04;;;;;;;9.45;2.58;;;26.10;62.50;;;;;;5094049;28;20034;-56
2022/10/01 08:44:39;;;;;;;6.65;2.35;;;26.30;61.50;;;;;;5093632;28;20405;-56
2022/10/01 08:47:12;;;;;;;23.15;5.22;;;26.40;61.70;;;;;;5053725;28;20041;-56
2022/10/01 08:49:45;;;;;;;10.70;3.33;;;26.70;62.60;;;;;;5053929;28;20032;-56
2022/10/01 08:52:42;;;;;;;14.45;3.95;;;26.30;62.70;;;;;;5053581;28;20086;-56
2022/10/01 08:55:25;;;;;;;14.02;4.47;;;26.80;67.40;;;;;;5053236;28;20414;-56
2022/10/01 08:57:55;;;;;;;11.05;3.28;;;27.20;63.70;;;;;;5053751;28;20029;-56
2022/10/01 09:00:21;;;;;;;14.15;3.22;;;27.10;61.30;;;;;;5054081;28;20025;-56
2022/10/01 09:02:48;;;;;;;7.22;2.47;;;27.20;61.10;;;;;;5052507;28;20044;-56
2022/10/01 09:05:32;;;;;;;9.10;3.05;;;27.10;59.20;;;;;;5056621;28;20082;-56
2022/10/01 09:08:04;;;;;;;19.92;3.88;;;27.20;59.90;;;;;;5057236;28;20029;-56
2022/10/01 09:10:42;;;;;;;8.85;2.42;;;27.40;62.70;;;;;;5057164;28;20100;-56
2022/10/01 09:13:28;;;;;;;40.70;8.23;;;27.60;60.10;;;;;;5057028;28;20558;-56
2022/10/01 09:16:20;;;;;;;20.98;4.72;;;27.80;64.70;;;;;;5057213;28;20021;-56
2022/10/01 09:19:04;;;;;;;20.40;4.10;;;28.40;63.30;;;;;;5057055;28;20025;-56
2022/10/01 09:21:50;;;;;;;19.38;4.68;;;29.10;63.40;;;;;;5056844;28;20395;-56
2022/10/01 09:24:37;;;;;;;26.10;5.30;;;29.70;60.90;;;;;;5063909;28;20059;-56
2022/10/01 09:27:17;;;;;;;10.38;3.90;;;30.10;58.90;;;;;;5097155;28;20139;-56
2022/10/01 09:29:50;;;;;;;17.55;4.38;;;30.50;59.30;;;;;;5096960;28;20074;-56
2022/10/01 09:32:21;;;;;;;27.67;6.15;;;30.70;54.40;;;;;;5097119;28;20089;-56
2022/10/01 09:34:47;;;;;;;22.52;5.05;;;31.00;56.00;;;;;;5097070;28;20059;-56
2022/10/01 09:37:46;;;;;;;9.35;2.75;;;31.20;54.90;;;;;;5097074;28;20051;-57
2022/10/01 09:40:37;;;;;;;14.35;4.45;;;31.00;54.80;;;;;;5096840;28;20032;-56
2022/10/01 09:43:07;;;;;;;33.15;7.50;;;31.60;53.70;;;;;;5096902;28;20393;-56
2022/10/01 09:45:33;;;;;;;50.53;8.27;;;31.90;55.50;;;;;;5089276;28;20032;-56
2022/10/01 09:48:31;;;;;;;10.75;2.25;;;32.10;54.60;;;;;;5076439;28;20036;-56
2022/10/01 09:51:22;;;;;;;13.43;3.13;;;32.20;51.90;;;;;;5070490;28;20037;-57
2022/10/01 09:54:03;;;;;;;8.00;2.80;;;32.60;52.60;;;;;;5076277;28;20037;-56
2022/10/01 09:56:38;;;;;;;16.65;3.80;;;32.40;51.50;;;;;;5076537;28;20108;-56
2022/10/01 09:59:10;;;;;;;25.33;6.78;;;32.00;48.60;;;;;;5076262;28;20497;-57
2022/10/01 10:01:55;;;;;;;32.50;7.13;;;32.60;49.50;;;;;;5076251;28;20028;-57
2022/10/01 10:04:25;;;;;;;5.65;1.90;;;32.20;50.00;;;;;;5076284;28;20028;-57
2022/10/01 10:06:58;;;;;;;27.73;6.22;;;32.40;52.40;;;;;;5076232;28;20037;-57
2022/10/01 10:09:30;;;;;;;6.68;2.17;;;32.40;50.80;;;;;;5076125;28;20078;-57
2022/10/01 10:11:58;;;;;;;12.93;3.72;;;31.90;49.20;;;;;;5076000;28;20041;-57
2022/10/01 10:14:33;;;;;;;5.35;1.65;;;32.10;49.10;;;;;;5076026;28;20021;-57
2022/10/01 10:17:20;;;;;;;4.25;1.70;;;31.50;50.30;;;;;;5074969;28;20028;-57
2022/10/01 10:19:51;;;;;;;10.95;3.20;;;31.90;51.20;;;;;;5075783;28;20067;-57
2022/10/01 10:22:26;;;;;;;;;;;32.00;50.00;;;;;;5076249;28;20040;-57
2022/10/01 10:24:54;;;;;;;5.88;2.30;;;31.80;49.60;;;;;;5084568;28;19919;-56
2022/10/01 10:27:29;;;;;;;4.88;1.98;;;31.40;50.20;;;;;;5095959;28;20036;-56
2022/10/01 10:30:12;;;;;;;11.23;2.70;;;31.80;51.40;;;;;;5095883;28;20481;-57
2022/10/01 10:32:38;;;;;;;11.88;3.40;;;31.50;50.30;;;;;;5095923;28;20021;-57
2022/10/01 10:35:12;;;;;;;18.00;4.05;;;29.90;52.70;;;;;;5096015;28;20032;-57
2022/10/01 10:37:45;;;;;;;14.32;3.65;;;29.70;52.00;;;;;;5095856;28;20032;-57
2022/10/01 10:40:42;;;;;;;26.38;4.85;;;29.60;54.60;;;;;;5095878;28;20101;-57
2022/10/01 10:43:29;;;;;;;6.38;2.40;;;30.40;55.00;;;;;;5087282;28;20130;-56
2022/10/01 10:45:56;;;;;;;6.82;2.90;;;30.40;52.40;;;;;;5084983;28;20428;-56
2022/10/01 10:48:27;;;;;;;6.93;2.65;;;31.10;53.80;;;;;;5075465;28;20032;-55
2022/10/01 10:51:03;;;;;;;6.45;2.70;;;31.10;51.10;;;;;;5075254;28;20251;-55
2022/10/01 10:53:39;;;;;;;13.75;3.92;;;30.80;51.10;;;;;;5075322;28;20035;-55
2022/10/01 10:56:13;;;;;;;18.00;3.97;;;31.30;51.00;;;;;;5075246;28;20082;-55
2022/10/01 10:58:41;;;;;;;19.58;3.47;;;30.80;52.00;;;;;;5075537;28;20037;-55
2022/10/01 11:01:15;;;;;;;8.23;2.70;;;30.90;49.50;;;;;;5075107;28;20489;-55
2022/10/01 11:03:48;;;;;;;18.52;4.40;;;31.40;51.90;;;;;;5075190;28;20036;-55
2022/10/01 11:06:17;;;;;;;16.77;4.18;;;32.00;51.90;;;;;;5074981;28;20038;-55
2022/10/01 11:08:44;;;;;;;15.82;3.78;;;32.40;47.60;;;;;;5075025;28;20071;-55
2022/10/01 11:11:46;;;;;;;12.82;3.33;;;32.40;48.90;;;;;;5074748;28;20025;-55
2022/10/01 11:14:43;;;;;;;6.97;2.42;;;32.00;50.70;;;;;;5070680;28;20055;-55
2022/10/01 11:17:31;;;;;;;8.68;2.67;;;31.50;50.80;;;;;;5074835;28;20537;-55
2022/10/01 11:20:21;;;;;;;5.72;2.17;;;31.00;50.20;;;;;;5074735;28;20033;-55
2022/10/01 11:23:05;;;;;;;11.70;3.30;;;30.60;50.50;;;;;;5074716;28;20037;-55
2022/10/01 11:26:17;;;;;;;23.75;5.60;;;30.50;51.10;;;;;;5088610;28;20109;-55
2022/10/01 11:29:02;;;;;;;10.10;3.03;;;30.60;53.30;;;;;;5092020;28;20040;-55
2022/10/01 11:31:46;;;;;;;7.90;2.47;;;30.60;53.30;;;;;;5095041;28;20032;-55
2022/10/01 11:34:27;;;;;;;18.75;5.65;;;30.20;54.30;;;;;;5094847;28;20119;-55
2022/10/01 11:37:09;;;;;;;11.43;3.30;;;30.20;54.70;;;;;;5094882;28;20558;-55
2022/10/01 11:39:41;;;;;;;21.10;5.40;;;30.10;54.20;;;;;;5094856;28;20085;-55
2022/10/01 11:42:16;;;;;;;21.77;5.30;;;30.00;57.00;;;;;;5094657;28;20043;-55
2022/10/01 11:44:58;;;;;;;22.52;6.72;;;30.10;55.60;;;;;;5094340;28;20470;-55
2022/10/01 11:47:31;;;;;;;4.47;1.65;;;30.80;54.30;;;;;;5074297;28;20174;-55
2022/10/01 11:50:03;;;;;;;8.10;2.47;;;30.70;48.30;;;;;;5074472;28;20072;-55
2022/10/01 11:52:37;;;;;;;7.60;2.08;;;30.30;49.80;;;;;;5074488;28;20115;-55
2022/10/01 11:58:51;;;;;;;12.55;6.53;;;29.50;50.30;;;;;;5052948;28;20478;-55
2022/10/01 12:01:23;;;;;;;6.25;2.25;;;29.10;50.90;;;;;;5074281;28;20032;-55
2022/10/01 12:03:51;;;;;;;4.75;1.70;;;29.10;51.90;;;;;;5074380;28;20028;-55
2022/10/01 12:06:42;;;;;;;8.95;2.53;;;29.10;52.60;;;;;;5074247;28;20035;-55
2022/10/01 12:09:31;;;;;;;7.82;1.70;;;29.20;53.50;;;;;;5074257;28;20048;-55
2022/10/01 12:12:05;;;;;;;9.18;2.38;;;29.10;53.90;;;;;;5074057;28;20547;-55
2022/10/01 12:14:51;;;;;;;13.27;3.55;;;29.00;52.40;;;;;;5074150;28;20028;-55
2022/10/01 12:17:42;;;;;;;14.00;4.10;;;28.80;53.40;;;;;;5074198;28;20043;-55
2022/10/01 12:20:33;;;;;;;21.85;4.18;;;28.60;55.30;;;;;;5074137;28;20527;-55
2022/10/01 12:23:04;;;;;;;19.55;3.80;;;28.40;56.70;;;;;;5073987;28;20040;-56
2022/10/01 12:25:51;;;;;;;26.23;5.18;;;28.20;58.20;;;;;;5087783;28;20035;-56
2022/10/01 12:28:46;;;;;;;13.48;3.90;;;27.60;59.00;;;;;;5094036;28;20040;-55
2022/10/01 12:31:38;;;;;;;20.95;5.70;;;26.60;65.00;;;;;;5094258;28;20028;-56
2022/10/01 12:34:27;;;;;;;12.77;5.30;;;25.70;69.10;;;;;;5094144;28;20554;-55
2022/10/01 12:37:32;;;;;;;14.15;4.85;;;24.60;72.40;;;;;;5094325;28;20367;-55
2022/10/01 12:40:16;;;;;;;9.32;4.32;;;23.70;76.80;;;;;;5096768;28;20106;-55
2022/10/01 12:42:57;;;;;;;9.98;5.10;;;23.20;80.10;;;;;;5098014;28;20103;-55
2022/10/01 12:45:28;;;;;;;16.38;4.72;;;23.10;80.90;;;;;;5092234;28;20028;-55
2022/10/01 12:47:54;;;;;;;10.32;4.13;;;22.80;81.80;;;;;;5077715;28;20039;-55
2022/10/01 12:50:51;;;;;;;15.40;4.13;;;22.70;83.00;;;;;;5077641;28;20036;-55
2022/10/01 12:53:23;;;;;;;20.02;5.90;;;22.50;85.60;;;;;;5077631;28;20040;-55
2022/10/01 12:56:09;;;;;;;15.75;5.35;;;22.30;91.40;;;;;;5076255;28;20059;-56
2022/10/01 12:59:11;;;;;;;13.70;5.55;;;22.20;95.90;;;;;;5077469;28;20033;-56
2022/10/01 13:01:52;;;;;;;19.63;7.22;;;21.80;97.90;;;;;;5077596;28;20087;-56
2022/10/01 13:05:03;;;;;;;19.08;7.18;;;21.50;99.90;;;;;;5077221;28;20063;-56
2022/10/01 13:07:41;;;;;;;11.55;5.47;;;21.20;99.90;;;;;;5077376;28;20454;-57
2022/10/01 13:10:23;;;;;;;12.77;4.82;;;21.10;99.90;;;;;;5077317;28;20070;-56